createdAt,value
2022-11-08T00:01:59.772Z,74.78
2022-11-08T00:04:27.454Z,74.83
2022-11-08T00:07:17.507Z,75.24
2022-11-08T00:10:04.161Z,75.54
2022-11-08T00:12:50.481Z,75.30
2022-11-08T00:15:18.636Z,75.08
2022-11-08T00:17:46.546Z,74.45
2022-11-08T00:20:17.026Z,74.20
2022-11-08T00:22:44.736Z,74.72
2022-11-08T00:25:12.324Z,74.74
2022-11-08T00:27:39.732Z,74.59
2022-11-08T00:30:07.889Z,74.52
2022-11-08T00:32:35.747Z,74.15
2022-11-08T00:35:03.264Z,73.70
2022-11-08T00:37:30.608Z,73.25
2022-11-08T00:39:59.562Z,73.14
2022-11-08T00:42:27.136Z,73.02
2022-11-08T00:44:54.637Z,73.25
2022-11-08T00:47:24.411Z,73.87
2022-11-08T00:49:52.205Z,74.06
2022-11-08T00:52:20.273Z,73.58
2022-11-08T00:54:47.953Z,73.38
2022-11-08T00:57:15.633Z,73.60
2022-11-08T00:59:43.385Z,73.35
2022-11-08T01:02:11.379Z,73.54
2022-11-08T01:04:39.804Z,73.08
2022-11-08T01:07:07.151Z,73.04
2022-11-08T01:09:34.735Z,73.13
2022-11-08T01:12:02.410Z,73.02
2022-11-08T01:14:30.005Z,73.16
2022-11-08T01:16:57.843Z,73.29
2022-11-08T01:19:25.408Z,73.40
2022-11-08T01:21:54.005Z,73.82
2022-11-08T01:24:21.725Z,74.15
2022-11-08T01:26:52.156Z,74.03
2022-11-08T01:29:19.914Z,74.69
2022-11-08T01:31:49.129Z,74.72
2022-11-08T01:34:16.735Z,74.36
2022-11-08T01:36:44.212Z,74.39
2022-11-08T01:39:12.050Z,73.99
2022-11-08T01:41:39.960Z,73.55
2022-11-08T01:44:16.739Z,73.65
2022-11-08T01:46:46.773Z,73.16
2022-11-08T01:49:34.543Z,73.47
2022-11-08T01:52:18.136Z,73.25
2022-11-08T01:55:01.781Z,72.78
2022-11-08T01:57:48.800Z,73.00
2022-11-08T02:00:18.475Z,73.25
2022-11-08T02:02:52.080Z,73.45
2022-11-08T02:05:26.461Z,73.13
2022-11-08T02:08:03.584Z,73.32
2022-11-08T02:10:37.395Z,73.08
2022-11-08T02:13:13.362Z,73.27
2022-11-08T02:15:43.162Z,73.77
2022-11-08T02:18:15.644Z,74.42
2022-11-08T02:20:50.393Z,74.26
2022-11-08T02:23:28.829Z,74.50
2022-11-08T02:25:56.314Z,74.52
2022-11-08T02:28:23.946Z,74.09
2022-11-08T02:30:51.957Z,73.74
2022-11-08T02:33:23.170Z,73.11
2022-11-08T02:35:54.434Z,72.96
2022-11-08T02:38:24.492Z,73.24
2022-11-08T02:40:54.370Z,73.51
2022-11-08T02:43:23.813Z,73.72
2022-11-08T02:45:52.598Z,73.80
2022-11-08T02:48:20.880Z,73.96
2022-11-08T02:50:49.708Z,74.16
2022-11-08T02:53:18.004Z,74.39
2022-11-08T02:55:46.051Z,74.49
2022-11-08T02:58:14.246Z,74.21
2022-11-08T03:00:42.330Z,74.07
2022-11-08T03:03:10.039Z,73.85
2022-11-08T03:05:37.465Z,73.76
2022-11-08T03:08:05.484Z,73.84
2022-11-08T03:10:33.205Z,74.28
2022-11-08T03:13:07.359Z,74.29
2022-11-08T03:15:35.086Z,74.46
2022-11-08T03:18:03.485Z,74.75
2022-11-08T03:20:33.126Z,74.75
2022-11-08T03:23:04.377Z,75.02
2022-11-08T03:25:32.418Z,74.98
2022-11-08T03:28:08.098Z,74.57
2022-11-08T03:30:37.147Z,74.68
2022-11-08T03:33:10.189Z,74.63
2022-11-08T03:35:38.269Z,74.57
2022-11-08T03:38:05.829Z,74.72
2022-11-08T03:40:33.550Z,75.39
2022-11-08T03:43:01.963Z,75.55
2022-11-08T03:45:30.042Z,75.61
2022-11-08T03:47:57.721Z,75.72
2022-11-08T03:50:25.239Z,75.58
2022-11-08T03:52:55.257Z,75.67
2022-11-08T03:55:26.024Z,75.73
2022-11-08T03:57:54.411Z,75.61
2022-11-08T04:00:25.748Z,75.71
2022-11-08T04:02:55.747Z,75.40
2022-11-08T04:05:24.011Z,75.36
2022-11-08T04:07:51.797Z,75.70
2022-11-08T04:10:21.924Z,75.35
2022-11-08T04:13:07.827Z,75.23
2022-11-08T04:15:35.582Z,76.08
2022-11-08T04:18:22.133Z,75.79
2022-11-08T04:21:08.566Z,76.01
2022-11-08T04:23:37.781Z,76.46
2022-11-08T04:26:08.491Z,76.20
2022-11-08T04:28:38.120Z,76.31
2022-11-08T04:31:09.158Z,76.66
2022-11-08T04:33:36.904Z,76.11
2022-11-08T04:36:07.950Z,76.00
2022-11-08T04:38:35.917Z,76.14
2022-11-08T04:41:10.262Z,76.27
2022-11-08T04:43:38.435Z,76.37
2022-11-08T04:46:12.557Z,76.29
2022-11-08T04:48:40.934Z,76.44
2022-11-08T04:51:23.643Z,76.60
2022-11-08T04:53:51.692Z,76.86
2022-11-08T04:56:21.763Z,76.69
2022-11-08T04:58:51.992Z,76.63
2022-11-08T05:01:22.147Z,76.42
2022-11-08T05:03:51.732Z,76.02
2022-11-08T05:06:25.253Z,76.32
2022-11-08T05:08:54.085Z,76.13
2022-11-08T05:11:23.664Z,75.98
2022-11-08T05:13:52.345Z,76.29
2022-11-08T05:16:22.712Z,76.25
2022-11-08T05:18:50.438Z,76.13
2022-11-08T05:21:38.892Z,75.79
2022-11-08T05:24:08.280Z,75.60
2022-11-08T05:26:38.604Z,76.01
2022-11-08T05:29:07.001Z,76.05
2022-11-08T05:31:35.245Z,75.94
2022-11-08T05:34:03.526Z,75.76
2022-11-08T05:36:32.313Z,75.68
2022-11-08T05:39:00.566Z,75.48
2022-11-08T05:41:28.845Z,75.42
2022-11-08T05:43:56.796Z,75.50
2022-11-08T05:46:25.085Z,75.83
2022-11-08T05:48:53.050Z,75.53
2022-11-08T05:51:23.734Z,75.61
2022-11-08T05:53:55.250Z,75.48
2022-11-08T05:56:24.583Z,75.55
2022-11-08T05:58:53.861Z,75.89
2022-11-08T06:01:22.879Z,76.12
2022-11-08T06:03:51.253Z,76.58
2022-11-08T06:06:21.490Z,76.56
2022-11-08T06:08:52.851Z,76.68
2022-11-08T06:11:24.931Z,76.32
2022-11-08T06:13:53.462Z,76.93
2022-11-08T06:16:22.311Z,77.33
2022-11-08T06:18:49.930Z,77.02
2022-11-08T06:21:21.021Z,77.00
2022-11-08T06:23:49.181Z,77.08
2022-11-08T06:26:16.769Z,77.25
2022-11-08T06:28:44.349Z,77.41
2022-11-08T06:31:12.080Z,77.46
2022-11-08T06:33:40.452Z,77.14
2022-11-08T06:36:08.320Z,76.99
2022-11-08T06:38:36.253Z,77.35
2022-11-08T06:41:03.687Z,77.30
2022-11-08T06:43:32.410Z,77.33
2022-11-08T06:46:03.385Z,77.04
2022-11-08T06:48:35.557Z,77.12
2022-11-08T06:51:04.571Z,77.32
2022-11-08T06:53:32.548Z,77.02
2022-11-08T06:56:01.404Z,76.88
2022-11-08T06:58:31.984Z,77.03
2022-11-08T07:01:03.004Z,76.67
2022-11-08T07:03:31.693Z,81.67
2022-11-08T07:06:08.792Z,79.53
2022-11-08T07:08:37.007Z,76.43
2022-11-08T07:11:07.885Z,75.24
2022-11-08T07:13:37.067Z,74.48
2022-11-08T07:16:07.309Z,74.32
2022-11-08T07:18:35.822Z,73.19
2022-11-08T07:21:05.033Z,73.56
2022-11-08T07:23:32.999Z,72.74
2022-11-08T07:26:05.620Z,73.46
2022-11-08T07:28:34.990Z,72.39
2022-11-08T07:31:05.452Z,71.86
2022-11-08T07:33:34.551Z,71.84
2022-11-08T07:36:03.542Z,70.31
2022-11-08T07:38:32.054Z,70.33
2022-11-08T07:41:00.586Z,70.71
2022-11-08T07:43:30.390Z,69.72
2022-11-08T07:46:09.003Z,69.77
2022-11-08T07:48:38.539Z,70.09
2022-11-08T07:51:07.294Z,70.04
2022-11-08T07:53:35.364Z,70.52
2022-11-08T07:56:06.507Z,71.12
2022-11-08T07:58:35.252Z,70.52
2022-11-08T08:01:18.891Z,70.77
2022-11-08T08:03:58.430Z,70.78
2022-11-08T08:06:26.984Z,71.00
2022-11-08T08:08:56.319Z,70.61
2022-11-08T08:11:27.130Z,71.03
2022-11-08T08:13:57.776Z,71.07
2022-11-08T08:16:25.822Z,70.42
2022-11-08T08:18:56.617Z,70.27
2022-11-08T08:21:25.308Z,70.63
2022-11-08T08:23:53.470Z,70.43
2022-11-08T08:26:21.988Z,69.91
2022-11-08T08:28:49.829Z,70.03
2022-11-08T08:31:18.366Z,70.01
2022-11-08T08:33:50.599Z,69.79
2022-11-08T08:36:19.211Z,69.54
2022-11-08T08:38:46.842Z,68.99
2022-11-08T08:41:14.499Z,68.94
2022-11-08T08:43:42.611Z,68.23
2022-11-08T08:46:10.740Z,68.07
2022-11-08T08:48:39.466Z,68.21
2022-11-08T08:51:07.682Z,68.67
2022-11-08T08:53:36.945Z,68.74
2022-11-08T08:56:06.451Z,69.07
2022-11-08T08:58:34.630Z,69.22
2022-11-08T09:03:52.229Z,69.18
2022-11-08T09:06:20.744Z,68.82
2022-11-08T09:08:49.376Z,70.47
2022-11-08T09:11:19.761Z,69.18
2022-11-08T09:13:47.787Z,68.62
2022-11-08T09:16:15.848Z,68.39
2022-11-08T09:18:43.687Z,68.73
2022-11-08T09:21:11.333Z,68.06
2022-11-08T09:23:39.139Z,68.05
2022-11-08T09:26:07.280Z,67.97
2022-11-08T09:28:37.776Z,67.71
2022-11-08T09:31:10.103Z,67.61
2022-11-08T09:33:39.565Z,68.26
2022-11-08T09:36:10.057Z,67.52
2022-11-08T09:38:38.404Z,67.41
2022-11-08T09:41:06.314Z,67.50
2022-11-08T09:43:40.016Z,67.72
2022-11-08T09:46:12.549Z,67.87
2022-11-08T09:48:44.726Z,67.68
2022-11-08T09:51:23.692Z,67.49
2022-11-08T09:54:00.293Z,67.74
2022-11-08T09:56:35.065Z,67.52
2022-11-08T09:59:13.918Z,67.50
2022-11-08T10:01:43.210Z,67.43
2022-11-08T10:04:21.608Z,67.35
2022-11-08T10:07:14.456Z,67.15
2022-11-08T10:10:05.902Z,67.20
2022-11-08T10:13:05.661Z,67.23
2022-11-08T10:16:02.291Z,66.85
2022-11-08T10:18:36.620Z,66.89
2022-11-08T10:21:19.678Z,66.88
2022-11-08T10:24:02.536Z,66.85
2022-11-08T10:26:42.822Z,66.27
2022-11-08T10:29:27.700Z,66.06
2022-11-08T10:32:23.320Z,65.92
2022-11-08T10:34:55.065Z,66.26
2022-11-08T10:37:27.566Z,65.94
2022-11-08T10:40:02.476Z,65.76
2022-11-08T10:42:39.741Z,65.70
2022-11-08T10:45:10.160Z,65.61
2022-11-08T10:47:39.687Z,65.57
2022-11-08T10:50:25.778Z,65.07
2022-11-08T10:53:01.026Z,65.22
2022-11-08T10:55:39.365Z,65.19
2022-11-08T10:58:30.970Z,64.99
2022-11-08T11:01:18.600Z,65.05
2022-11-08T11:03:48.180Z,64.96
2022-11-08T11:06:30.309Z,64.83
2022-11-08T11:09:00.492Z,64.34
2022-11-08T11:11:37.508Z,64.26
2022-11-08T11:14:22.294Z,64.43
2022-11-08T11:16:58.617Z,63.88
2022-11-08T11:19:29.038Z,63.68
2022-11-08T11:22:08.775Z,63.93
2022-11-08T11:24:37.189Z,65.40
2022-11-08T11:27:21.882Z,66.22
2022-11-08T11:29:49.420Z,66.44
2022-11-08T11:32:34.666Z,66.22
2022-11-08T11:35:04.784Z,66.32
2022-11-08T11:37:43.596Z,66.31
2022-11-08T11:40:20.688Z,65.91
2022-11-08T11:43:06.813Z,65.51
2022-11-08T11:49:14.338Z,65.07
2022-11-08T11:51:41.880Z,64.75
2022-11-08T11:54:15.568Z,64.73
2022-11-08T11:56:55.864Z,64.45
2022-11-08T12:00:11.512Z,64.25
2022-11-08T12:03:01.700Z,64.11
2022-11-08T12:06:10.671Z,64.46
2022-11-08T12:08:52.996Z,64.04
2022-11-08T12:11:29.486Z,63.90
2022-11-08T12:14:09.049Z,63.77
2022-11-08T12:16:55.440Z,63.97
2022-11-08T12:19:44.274Z,63.82
2022-11-08T12:22:36.391Z,63.85
2022-11-08T12:25:54.687Z,62.45
2022-11-08T12:28:26.979Z,62.19
2022-11-08T12:31:03.762Z,62.62
2022-11-08T12:34:02.542Z,62.44
2022-11-08T12:37:07.662Z,62.45
2022-11-08T12:40:34.871Z,62.09
2022-11-08T12:43:30.076Z,62.33
2022-11-08T12:46:05.100Z,62.38
2022-11-08T12:49:05.745Z,62.56
2022-11-08T12:52:16.389Z,62.64
2022-11-08T12:54:54.894Z,63.04
2022-11-08T12:57:28.551Z,62.99
2022-11-08T13:00:03.281Z,62.79
2022-11-08T13:02:34.648Z,62.46
2022-11-08T13:05:17.372Z,62.58
2022-11-08T13:07:52.820Z,62.18
2022-11-08T13:10:39.378Z,61.71
2022-11-08T13:13:15.033Z,61.79
2022-11-08T13:16:16.840Z,61.20
2022-11-08T13:18:57.123Z,61.46
2022-11-08T13:21:30.802Z,61.74
2022-11-08T13:24:09.835Z,61.33
2022-11-08T13:26:43.545Z,61.36
2022-11-08T13:29:15.140Z,61.44
2022-11-08T13:32:19.934Z,61.57
2022-11-08T13:35:13.424Z,61.89
2022-11-08T13:37:56.871Z,61.89
2022-11-08T13:40:54.885Z,61.73
2022-11-08T13:43:31.855Z,62.04
2022-11-08T13:46:28.202Z,62.10
2022-11-08T13:49:05.800Z,62.32
2022-11-08T13:51:54.603Z,62.41
2022-11-08T13:54:22.559Z,62.46
2022-11-08T13:57:06.334Z,62.77
2022-11-08T13:59:34.074Z,62.96
2022-11-08T14:02:27.226Z,63.49
2022-11-08T14:05:12.562Z,64.24
2022-11-08T14:08:14.178Z,65.51
2022-11-08T14:11:20.953Z,66.30
2022-11-08T14:14:13.382Z,67.05
2022-11-08T14:16:53.590Z,67.48
2022-11-08T14:19:27.355Z,67.54
2022-11-08T14:22:10.793Z,68.13
2022-11-08T14:24:39.906Z,67.69
2022-11-08T14:27:07.705Z,68.10
2022-11-08T14:29:35.515Z,68.07
2022-11-08T14:32:08.201Z,68.17
2022-11-08T14:34:39.731Z,68.14
2022-11-08T14:37:26.835Z,68.47
2022-11-08T14:39:55.104Z,68.15
2022-11-08T14:42:25.625Z,67.40
2022-11-08T14:44:56.192Z,66.41
2022-11-08T14:47:30.642Z,67.33
2022-11-08T14:50:01.250Z,67.27
2022-11-08T14:52:31.323Z,66.34
2022-11-08T14:55:11.940Z,66.04
2022-11-08T14:57:46.290Z,66.42
2022-11-08T15:00:15.939Z,66.43
2022-11-08T15:02:51.488Z,66.44
2022-11-08T15:05:38.412Z,66.02
2022-11-08T15:08:18.271Z,66.30
2022-11-08T15:11:01.721Z,66.18
2022-11-08T15:13:33.088Z,66.53
2022-11-08T15:16:05.957Z,66.21
2022-11-08T15:18:40.938Z,66.52
2022-11-08T15:21:29.936Z,66.98
2022-11-08T15:24:16.180Z,66.29
2022-11-08T15:27:17.145Z,66.27
2022-11-08T15:30:02.439Z,67.55
2022-11-08T15:32:41.000Z,69.16
2022-11-08T15:35:21.355Z,69.45
2022-11-08T15:37:53.217Z,70.16
2022-11-08T15:40:24.830Z,70.34
2022-11-08T15:42:56.081Z,70.95
2022-11-08T15:45:36.202Z,71.25
2022-11-08T15:48:09.628Z,71.66
2022-11-08T15:50:41.023Z,72.16
2022-11-08T15:53:10.686Z,71.89
2022-11-08T15:55:42.277Z,72.35
2022-11-08T15:58:42.073Z,72.47
2022-11-08T16:01:22.565Z,72.00
2022-11-08T16:03:50.329Z,72.28
2022-11-08T16:06:18.605Z,72.73
2022-11-08T16:08:46.440Z,72.58
2022-11-08T16:11:20.771Z,72.91
2022-11-08T16:13:49.629Z,73.05
2022-11-08T16:16:18.429Z,73.60
2022-11-08T16:18:46.396Z,73.56
2022-11-08T16:21:15.078Z,73.69
2022-11-08T16:23:43.201Z,73.79
2022-11-08T16:26:18.516Z,74.25
2022-11-08T16:28:46.558Z,74.57
2022-11-08T16:31:16.565Z,74.31
2022-11-08T16:33:46.283Z,74.58
2022-11-08T16:36:23.667Z,74.87
2022-11-08T16:38:56.963Z,74.92
2022-11-08T16:41:37.632Z,74.97
2022-11-08T16:44:08.676Z,74.95
2022-11-08T16:46:36.937Z,75.32
2022-11-08T16:49:06.049Z,75.29
2022-11-08T16:51:34.328Z,75.86
2022-11-08T16:54:31.864Z,76.00
2022-11-08T16:57:28.510Z,76.15
2022-11-08T16:59:51.972Z,76.31
2022-11-08T17:02:31.015Z,76.69
2022-11-08T17:04:59.541Z,76.63
2022-11-08T17:07:30.147Z,76.79
2022-11-08T17:10:01.118Z,76.92
2022-11-08T17:12:29.777Z,77.33
2022-11-08T17:15:17.795Z,77.36
2022-11-08T17:17:46.664Z,77.52
2022-11-08T17:20:36.515Z,77.69
2022-11-08T17:23:04.237Z,77.86
2022-11-08T17:25:31.994Z,77.70
2022-11-08T17:28:01.243Z,77.76
2022-11-08T17:30:29.211Z,77.77
2022-11-08T17:32:57.088Z,77.80
2022-11-08T17:35:24.943Z,77.66
2022-11-08T17:37:53.881Z,77.99
2022-11-08T17:40:33.513Z,77.97
2022-11-08T17:43:01.690Z,78.23
2022-11-08T17:45:34.179Z,78.11
2022-11-08T17:48:26.810Z,78.05
2022-11-08T17:50:58.343Z,78.28
2022-11-08T17:53:26.517Z,78.13
2022-11-08T17:56:02.469Z,78.26
2022-11-08T17:58:33.947Z,78.15
2022-11-08T18:04:00.926Z,78.13
2022-11-08T18:06:31.599Z,78.31
2022-11-08T18:09:01.334Z,78.15
2022-11-08T18:11:38.003Z,78.36
2022-11-08T18:14:15.420Z,78.50
2022-11-08T18:16:49.760Z,78.73
2022-11-08T18:19:26.493Z,79.00
2022-11-08T18:21:54.283Z,79.02
2022-11-08T18:24:25.458Z,79.22
2022-11-08T18:26:56.601Z,79.35
2022-11-08T18:29:24.723Z,79.21
2022-11-08T18:31:52.980Z,79.30
2022-11-08T18:34:20.607Z,79.32
2022-11-08T18:36:50.855Z,79.29
2022-11-08T18:39:19.953Z,79.40
2022-11-08T18:41:52.008Z,79.27
2022-11-08T18:44:20.266Z,79.24
2022-11-08T18:46:48.264Z,79.34
2022-11-08T18:49:16.848Z,79.65
2022-11-08T18:51:44.761Z,79.43
2022-11-08T18:54:12.518Z,79.58
2022-11-08T18:56:40.657Z,79.61
2022-11-08T18:59:11.885Z,79.63
2022-11-08T19:01:40.052Z,79.70
2022-11-08T19:04:08.667Z,79.65
2022-11-08T19:06:40.580Z,79.52
2022-11-08T19:09:09.117Z,79.65
2022-11-08T19:11:42.003Z,79.80
2022-11-08T19:14:10.256Z,79.90
2022-11-08T19:16:42.375Z,79.79
2022-11-08T19:19:10.663Z,79.72
2022-11-08T19:21:47.975Z,80.00
2022-11-08T19:24:19.402Z,79.90
2022-11-08T19:26:47.804Z,79.73
2022-11-08T19:29:16.372Z,80.04
2022-11-08T19:31:46.162Z,79.98
2022-11-08T19:34:14.460Z,79.88
2022-11-08T19:36:45.427Z,79.61
2022-11-08T19:39:14.000Z,79.37
2022-11-08T19:41:42.478Z,79.05
2022-11-08T19:44:11.929Z,78.17
2022-11-08T19:46:45.558Z,77.99
2022-11-08T19:49:26.084Z,77.51
2022-11-08T19:51:54.911Z,77.47
2022-11-08T19:54:22.979Z,77.25
2022-11-08T19:57:04.831Z,78.51
2022-11-08T19:59:34.455Z,78.40
2022-11-08T20:02:03.503Z,78.59
2022-11-08T20:04:31.802Z,78.77
2022-11-08T20:06:59.635Z,79.01
2022-11-08T20:09:30.837Z,79.03
2022-11-08T20:11:59.001Z,79.00
2022-11-08T20:14:26.546Z,78.99
2022-11-08T20:16:55.927Z,79.56
2022-11-08T20:19:23.601Z,80.04
2022-11-08T20:21:51.704Z,79.69
2022-11-08T20:24:20.153Z,79.69
2022-11-08T20:26:50.994Z,80.19
2022-11-08T20:29:19.930Z,79.95
2022-11-08T20:31:53.096Z,79.69
2022-11-08T20:34:32.375Z,79.48
2022-11-08T20:37:01.132Z,79.54
2022-11-08T20:39:28.658Z,79.46
2022-11-08T20:41:56.633Z,79.77
2022-11-08T20:44:25.227Z,80.08
2022-11-08T20:46:53.083Z,79.95
2022-11-08T20:49:21.211Z,79.75
2022-11-08T20:51:48.715Z,78.68
2022-11-08T20:54:17.078Z,79.58
2022-11-08T20:56:44.751Z,80.08
2022-11-08T20:59:12.962Z,80.38
2022-11-08T21:01:43.233Z,81.08
2022-11-08T21:04:10.829Z,80.14
2022-11-08T21:06:41.895Z,80.27
2022-11-08T21:09:34.417Z,80.33
2022-11-08T21:12:13.859Z,80.67
2022-11-08T21:14:41.408Z,80.71
2022-11-08T21:17:21.800Z,80.35
2022-11-08T21:19:51.734Z,80.16
2022-11-08T21:22:19.665Z,79.97
2022-11-08T21:24:48.845Z,80.19
2022-11-08T21:27:17.236Z,80.09
2022-11-08T21:29:45.181Z,79.74
2022-11-08T21:32:12.878Z,79.53
2022-11-08T21:34:46.661Z,79.81
2022-11-08T21:37:23.698Z,80.36
2022-11-08T21:39:51.353Z,80.47
2022-11-08T21:42:19.017Z,80.32
2022-11-08T21:44:46.599Z,80.21
2022-11-08T21:47:14.351Z,80.69
2022-11-08T21:49:42.405Z,79.96
2022-11-08T21:52:10.400Z,80.37
2022-11-08T21:55:12.268Z,79.84
2022-11-08T21:57:43.866Z,79.48
2022-11-08T22:00:13.481Z,79.60
2022-11-08T22:02:41.942Z,79.81
2022-11-08T22:05:11.518Z,79.73
2022-11-08T22:07:39.721Z,80.16
2022-11-08T22:10:08.904Z,79.82
2022-11-08T22:12:45.261Z,79.83
2022-11-08T22:15:19.270Z,79.94
2022-11-08T22:18:14.284Z,79.96
2022-11-08T22:20:34.866Z,80.21
2022-11-08T22:23:08.671Z,80.00
2022-11-08T22:25:37.580Z,79.98
2022-11-08T22:28:10.227Z,80.18
2022-11-08T22:30:43.318Z,80.38
2022-11-08T22:33:11.976Z,80.48
2022-11-08T22:35:48.627Z,80.56
2022-11-08T22:38:20.251Z,80.42
2022-11-08T22:40:55.793Z,80.42
2022-11-08T22:43:29.323Z,80.40
2022-11-08T22:45:57.839Z,80.42
2022-11-08T22:48:26.618Z,80.41
2022-11-08T22:50:58.294Z,80.40
2022-11-08T22:53:26.690Z,80.06
2022-11-08T22:55:55.455Z,80.18
2022-11-08T22:58:24.447Z,80.13
2022-11-08T23:00:56.561Z,80.32
2022-11-08T23:03:31.877Z,80.14
2022-11-08T23:06:11.980Z,79.98
2022-11-08T23:08:40.773Z,79.86
2022-11-08T23:11:27.991Z,79.97
2022-11-08T23:14:15.261Z,79.69
2022-11-08T23:16:45.895Z,79.86
2022-11-08T23:19:39.310Z,79.94
2022-11-08T23:22:29.989Z,80.16
2022-11-08T23:24:58.188Z,80.10
2022-11-08T23:27:45.454Z,80.10
2022-11-08T23:30:34.912Z,79.98
2022-11-08T23:33:07.817Z,80.27
2022-11-08T23:35:38.197Z,80.52
2022-11-08T23:38:06.347Z,80.55
2022-11-08T23:40:52.870Z,80.56
2022-11-08T23:43:43.251Z,80.66
2022-11-08T23:46:15.403Z,80.62
2022-11-08T23:48:48.483Z,80.61
2022-11-08T23:51:15.733Z,80.38
2022-11-08T23:53:44.274Z,80.64
2022-11-08T23:56:20.738Z,80.15
2022-11-08T23:58:48.872Z,80.52
